Time;durP1;ratioP1;P1;durP2;ratioP2;P2;SDS_P1;SDS_P2;PMS_P1;PMS_P2;Temp;Humidity;BMP_temperature;BMP_pressure;BME280_temperature;BME280_humidity;BME280_pressure;Samples;Min_cycle;Max_cycle;Signal;HPM_P1;HPM_P2
2021/06/22 00:00:48;;;;;;;;;;;;;;;23.94;59.62;99293.47;5135315;27;20450;-38
2021/06/22 00:03:13;;;;;;;;;;;;;;;23.79;60.53;99283.72;5134929;27;19934;-38
2021/06/22 00:05:39;;;;;;;;;;;;;;;23.69;60.81;99281.97;5133248;27;19915;-39
2021/06/22 00:08:04;;;;;;;;;;;;;;;23.85;60.24;99278.97;5134827;27;19911;-39
2021/06/22 00:10:30;;;;;;;;;;;;;;;23.85;60.30;99268.91;5134689;27;19911;-38
2021/06/22 00:12:56;;;;;;;;;;;;;;;23.95;59.91;99270.59;5134781;27;19911;-38
2021/06/22 00:15:21;;;;;;;;;;;;;;;23.62;61.34;99270.69;5134620;27;19919;-38
2021/06/22 00:17:47;;;;;;;;;;;;;;;23.51;61.63;99274.72;5134839;27;19919;-38
2021/06/22 00:20:13;;;;;;;;;;;;;;;23.67;61.19;99267.88;5134833;27;19915;-38
2021/06/22 00:22:38;;;;;;;;;;;;;;;23.64;61.25;99276.63;5134186;27;19945;-38
2021/06/22 00:25:04;;;;;;;;;;;;;;;23.43;62.09;99281.66;5134671;27;20015;-38
2021/06/22 00:27:30;;;;;;;;;;;;;;;23.45;62.17;99274.00;5134646;27;19977;-39
2021/06/22 00:29:55;;;;;;;;;;;;;;;23.43;62.17;99274.28;5134164;27;20406;-39
2021/06/22 00:32:20;;;;;;;;;;;;;;;23.55;61.75;99278.44;5135854;27;19919;-39
2021/06/22 00:34:45;;;;;;;;;;;;;;;23.63;61.43;99275.03;5154850;27;20025;-38
2021/06/22 00:37:14;;;;;;;;;;;;;;;23.54;61.75;99274.13;5154891;27;20002;-38
2021/06/22 00:39:39;;;;;;;;;;;;;;;23.65;61.63;99266.59;5154754;27;19911;-38
2021/06/22 00:42:04;;;;;;;;;;;;;;;23.43;62.07;99268.88;5155058;27;19911;-38
2021/06/22 00:44:30;;;;;;;;;;;;;;;23.27;62.48;99277.63;5154894;27;19917;-38
2021/06/22 00:46:55;;;;;;;;;;;;;;;23.27;62.40;99272.19;5154817;27;19945;-38
2021/06/22 00:49:20;;;;;;;;;;;;;;;23.43;61.93;99266.16;5155040;27;19918;-38
2021/06/22 00:51:45;;;;;;;;;;;;;;;23.57;61.35;99276.22;5154798;27;20002;-37
2021/06/22 00:54:11;;;;;;;;;;;;;;;23.50;62.07;99273.91;5154831;27;20291;-38
2021/06/22 00:56:36;;;;;;;;;;;;;;;23.62;62.08;99273.41;5154765;27;20002;-38
2021/06/22 00:59:01;;;;;;;;;;;;;;;23.49;62.34;99268.78;5135812;27;19983;-38
2021/06/22 01:01:27;;;;;;;;;;;;;;;23.53;62.29;99269.78;5154313;27;19919;-38
2021/06/22 01:03:52;;;;;;;;;;;;;;;23.47;62.69;99273.72;5154261;27;19911;-38
2021/06/22 01:06:17;;;;;;;;;;;;;;;23.44;62.88;99266.97;5154313;27;19922;-38
2021/06/22 01:08:42;;;;;;;;;;;;;;;23.29;63.41;99272.69;5154643;27;19911;-38
2021/06/22 01:11:08;;;;;;;;;;;;;;;23.42;63.03;99280.06;5154798;27;19918;-38
2021/06/22 01:13:33;;;;;;;;;;;;;;;23.38;63.26;99276.31;5154104;27;20468;-38
2021/06/22 01:15:58;;;;;;;;;;;;;;;23.36;63.29;99273.91;5153104;27;19935;-39
2021/06/22 01:18:23;;;;;;;;;;;;;;;23.29;63.87;99276.22;5153851;27;20340;-37
2021/06/22 01:20:49;;;;;;;;;;;;;;;23.35;63.56;99277.72;5150228;27;20010;-38
2021/06/22 01:23:14;;;;;;;;;;;;;;;23.38;63.81;99282.56;5133588;27;19942;-39
2021/06/22 01:25:39;;;;;;;;;;;;;;;23.35;63.81;99277.72;5133404;27;19916;-38
2021/06/22 01:28:05;;;;;;;;;;;;;;;23.34;64.22;99284.28;5133332;27;19918;-38
2021/06/22 01:30:30;;;;;;;;;;;;;;;23.25;64.50;99279.81;5133171;27;19915;-39
2021/06/22 01:32:56;;;;;;;;;;;;;;;23.31;64.35;99282.13;5139692;27;19951;-39
2021/06/22 01:35:21;;;;;;;;;;;;;;;23.41;64.14;99281.94;5153987;27;20009;-39
2021/06/22 01:37:53;;;;;;;;;;;;;;;23.46;64.01;99282.97;5153749;27;19926;-39
2021/06/22 01:40:19;;;;;;;;;;;;;;;23.29;64.50;99276.22;5153787;27;19915;-39
2021/06/22 01:42:44;;;;;;;;;;;;;;;23.20;64.85;99273.38;5153616;27;20010;-38
2021/06/22 01:45:09;;;;;;;;;;;;;;;23.35;64.20;99268.78;5153980;27;20323;-38
2021/06/22 01:47:35;;;;;;;;;;;;;;;23.22;64.81;99259.50;5153639;27;19950;-37
2021/06/22 01:50:01;;;;;;;;;;;;;;;23.09;64.80;99246.72;5153496;27;20001;-38
2021/06/22 01:52:27;;;;;;;;;;;;;;;23.25;64.70;99248.06;5153521;27;19922;-38
2021/06/22 01:54:54;;;;;;;;;;;;;;;23.14;64.96;99239.28;5153514;27;19922;-38
2021/06/22 01:57:22;;;;;;;;;;;;;;;23.05;65.30;99238.34;5153347;27;19977;-38
2021/06/22 01:59:48;;;;;;;;;;;;;;;23.08;65.30;99231.56;5153165;27;20406;-38
2021/06/22 02:02:13;;;;;;;;;;;;;;;22.91;65.97;99223.94;5153786;27;19918;-38
2021/06/22 02:04:38;;;;;;;;;;;;;;;22.98;65.36;99235.19;5153116;27;20351;-38
2021/06/22 02:07:04;;;;;;;;;;;;;;;22.93;65.60;99229.88;5153512;27;19915;-38
2021/06/22 02:09:29;;;;;;;;;;;;;;;22.83;66.21;99236.28;5153068;27;19983;-38
2021/06/22 02:11:54;;;;;;;;;;;;;;;22.89;65.74;99237.00;5153059;27;19918;-39
2021/06/22 02:14:19;;;;;;;;;;;;;;;22.83;65.56;99233.56;5152939;27;19911;-39
2021/06/22 02:16:45;;;;;;;;;;;;;;;22.72;66.27;99224.78;5153012;27;19968;-39
2021/06/22 02:19:10;;;;;;;;;;;;;;;22.82;65.70;99230.03;5153029;27;20301;-39
2021/06/22 02:21:35;;;;;;;;;;;;;;;22.81;65.61;99228.44;5142516;27;19911;-39
2021/06/22 02:24:00;;;;;;;;;;;;;;;22.67;66.21;99232.19;5132362;27;20274;-39
2021/06/22 02:26:26;;;;;;;;;;;;;;;22.67;66.01;99232.19;5132222;27;20006;-39
2021/06/22 02:28:51;;;;;;;;;;;;;;;22.62;66.00;99227.69;5131260;27;20359;-37
2021/06/22 02:31:16;;;;;;;;;;;;;;;22.60;66.04;99238.81;5132191;27;19916;-37
2021/06/22 02:33:42;;;;;;;;;;;;;;;22.61;65.95;99234.97;5145091;27;19911;-37
2021/06/22 02:36:07;;;;;;;;;;;;;;;22.71;65.38;99230.50;5152286;27;20358;-37
2021/06/22 02:38:32;;;;;;;;;;;;;;;22.86;64.52;99232.16;5136626;27;19968;-37
2021/06/22 02:40:58;;;;;;;;;;;;;;;22.74;64.85;99229.91;5131476;27;19943;-38
2021/06/22 02:43:23;;;;;;;;;;;;;;;22.36;66.25;99235.38;5130968;28;19911;-37
2021/06/22 02:45:48;;;;;;;;;;;;;;;22.31;66.70;99232.75;5131306;28;19915;-38
2021/06/22 02:48:13;;;;;;;;;;;;;;;22.43;66.33;99230.41;5132041;28;20037;-38
2021/06/22 02:50:40;;;;;;;;;;;;;;;22.53;65.43;99230.25;5131709;28;19998;-38
2021/06/22 02:53:05;;;;;;;;;;;;;;;22.35;66.69;99239.19;5134897;27;20275;-38
2021/06/22 02:55:30;;;;;;;;;;;;;;;22.48;65.87;99233.03;5133717;27;20403;-38
2021/06/22 02:57:56;;;;;;;;;;;;;;;22.50;65.71;99228.09;5152231;27;19911;-38
2021/06/22 03:00:25;;;;;;;;;;;;;;;22.61;65.18;99226.84;5152099;27;20301;-38
2021/06/22 03:02:50;;;;;;;;;;;;;;;22.98;63.99;99230.59;5152318;27;19958;-38
2021/06/22 03:05:15;;;;;;;;;;;;;;;23.71;59.80;99233.59;5152626;27;19950;-38
2021/06/22 03:07:41;;;;;;;;;;;;;;;24.16;58.21;99236.47;5152393;27;19933;-37
2021/06/22 03:10:07;;;;;;;;;;;;;;;24.44;55.39;99235.56;5152644;27;19910;-38
2021/06/22 03:12:32;;;;;;;;;;;;;;;24.39;58.43;99240.03;5133711;27;19967;-38
2021/06/22 03:14:58;;;;;;;;;;;;;;;24.71;56.33;99238.22;5151491;27;20005;-39
2021/06/22 03:17:23;;;;;;;;;;;;;;;24.82;56.20;99236.03;5151704;27;19919;-39
2021/06/22 03:19:48;;;;;;;;;;;;;;;24.90;56.01;99242.63;5151746;27;19925;-37
2021/06/22 03:22:13;;;;;;;;;;;;;;;25.05;56.56;99249.63;5136004;27;19912;-38
2021/06/22 03:24:39;;;;;;;;;;;;;;;25.11;56.41;99246.47;5129943;27;19918;-38
2021/06/22 03:27:05;;;;;;;;;;;;;;;25.11;56.31;99245.63;5129473;28;20304;-37
2021/06/22 03:29:30;;;;;;;;;;;;;;;25.23;56.36;99243.19;5130132;28;19961;-38
2021/06/22 03:31:55;;;;;;;;;;;;;;;25.25;56.59;99242.88;5129981;27;20373;-38
2021/06/22 03:34:20;;;;;;;;;;;;;;;25.17;57.00;99241.69;5130376;28;19911;-38
2021/06/22 03:36:46;;;;;;;;;;;;;;;25.09;56.54;99240.53;5130542;27;20006;-38
2021/06/22 03:39:11;;;;;;;;;;;;;;;25.25;56.82;99242.88;5152366;27;19994;-38
2021/06/22 03:41:37;;;;;;;;;;;;;;;25.41;56.28;99256.88;5155593;27;20327;-38
2021/06/22 03:44:02;;;;;;;;;;;;;;;25.46;56.30;99257.53;5155844;27;19967;-38
2021/06/22 03:46:28;;;;;;;;;;;;;;;25.50;56.20;99246.81;5156033;27;19923;-37
2021/06/22 03:48:53;;;;;;;;;;;;;;;25.67;55.20;99244.16;5156095;27;19943;-37
2021/06/22 03:51:18;;;;;;;;;;;;;;;25.65;55.07;99256.50;5137780;27;20002;-38
2021/06/22 03:53:44;;;;;;;;;;;;;;;25.38;55.78;99261.03;5155658;27;19911;-38
2021/06/22 03:56:09;;;;;;;;;;;;;;;25.71;55.06;99261.47;5155531;27;19911;-38
2021/06/22 03:58:34;;;;;;;;;;;;;;;25.87;54.83;99261.03;5155235;27;19911;-38
2021/06/22 04:01:00;;;;;;;;;;;;;;;26.37;53.73;99257.09;5155132;27;19946;-39
2021/06/22 04:03:25;;;;;;;;;;;;;;;26.79;52.39;99266.44;5154807;27;19993;-39
2021/06/22 04:05:51;;;;;;;;;;;;;;;26.93;51.84;99258.06;5154197;27;19993;-38
2021/06/22 04:08:16;;;;;;;;;;;;;;;27.39;50.81;99270.16;5154352;27;20369;-38
2021/06/22 04:10:41;;;;;;;;;;;;;;;27.81;49.63;99272.22;5154709;27;19911;-39
2021/06/22 04:13:07;;;;;;;;;;;;;;;28.19;48.10;99272.19;5124753;27;19924;-39
2021/06/22 04:15:32;;;;;;;;;;;;;;;28.64;47.14;99279.75;5113362;28;19920;-39
2021/06/22 04:18:01;;;;;;;;;;;;;;;28.94;46.35;99268.69;5112666;28;19980;-39
2021/06/22 04:20:26;;;;;;;;;;;;;;;29.15;46.27;99271.41;5113301;27;19915;-39
2021/06/22 04:22:52;;;;;;;;;;;;;;;29.44;45.69;99267.66;5133619;27;19911;-38
2021/06/22 04:25:17;;;;;;;;;;;;;;;29.77;45.23;99268.72;5133097;27;20310;-37
2021/06/22 04:27:43;;;;;;;;;;;;;;;30.12;44.45;99277.28;5133244;27;19915;-38
2021/06/22 04:30:08;;;;;;;;;;;;;;;29.99;44.09;99278.44;5131853;27;19943;-38
2021/06/22 04:32:34;;;;;;;;;;;;;;;29.59;44.01;99282.63;5133244;27;19973;-38
2021/06/22 04:34:59;;;;;;;;;;;;;;;29.68;44.10;99276.22;5133297;27;19911;-39
2021/06/22 04:37:24;;;;;;;;;;;;;;;30.14;43.64;99288.69;5132713;27;19912;-38
2021/06/22 04:39:49;;;;;;;;;;;;;;;30.45;42.89;99303.75;5132781;27;19911;-39
2021/06/22 04:42:15;;;;;;;;;;;;;;;30.79;42.37;99302.38;5132910;27;19915;-39
2021/06/22 04:44:40;;;;;;;;;;;;;;;30.74;41.85;99302.59;5133002;27;20001;-38
2021/06/22 04:47:05;;;;;;;;;;;;;;;31.22;40.82;99304.69;5133018;27;19915;-39
2021/06/22 04:49:31;;;;;;;;;;;;;;;31.60;40.17;99295.88;5132310;27;20013;-38
2021/06/22 04:51:56;;;;;;;;;;;;;;;32.12;39.31;99300.28;5131722;27;19912;-39
2021/06/22 04:54:23;;;;;;;;;;;;;;;32.48;38.49;99294.72;5132147;27;19911;-40
2021/06/22 04:56:48;;;;;;;;;;;;;;;32.75;37.70;99294.88;5132229;27;19983;-38
2021/06/22 04:59:14;;;;;;;;;;;;;;;32.92;37.68;99299.97;5132496;27;19912;-39
2021/06/22 05:01:39;;;;;;;;;;;;;;;32.88;37.38;99299.09;5132832;27;20007;-37
2021/06/22 05:04:05;;;;;;;;;;;;;;;33.37;36.49;99309.47;5113848;27;19922;-38
2021/06/22 05:06:30;;;;;;;;;;;;;;;33.58;36.53;99298.00;5132524;27;19915;-39
2021/06/22 05:08:55;;;;;;;;;;;;;;;34.11;35.51;99308.28;5133121;27;20549;-38
2021/06/22 05:11:21;;;;;;;;;;;;;;;34.36;35.07;99313.38;5132891;27;19968;-39
2021/06/22 05:13:46;;;;;;;;;;;;;;;34.68;34.57;99307.50;5132618;27;19911;-40
2021/06/22 05:16:11;;;;;;;;;;;;;;;34.95;33.80;99306.22;5132455;27;19919;-38
2021/06/22 05:18:37;;;;;;;;;;;;;;;35.27;33.37;99305.78;5132509;27;19919;-39
2021/06/22 05:21:03;;;;;;;;;;;;;;;35.42;33.07;99301.97;5132849;27;19923;-39
2021/06/22 05:23:28;;;;;;;;;;;;;;;35.73;32.07;99302.63;5132139;27;19915;-38
2021/06/22 05:25:53;;;;;;;;;;;;;;;35.67;32.32;99304.13;5132328;27;19964;-39
2021/06/22 05:28:19;;;;;;;;;;;;;;;34.76;33.66;99309.97;5132759;27;20322;-39
2021/06/22 05:30:44;;;;;;;;;;;;;;;34.90;33.35;99314.06;5132663;27;19916;-39
2021/06/22 05:33:09;;;;;;;;;;;;;;;34.69;33.53;99303.56;5132417;27;20010;-40
2021/06/22 05:35:35;;;;;;;;;;;;;;;35.14;33.56;99307.19;5132006;27;19918;-37
2021/06/22 05:38:00;;;;;;;;;;;;;;;35.72;32.40;99303.00;5132197;27;19976;-38
2021/06/22 05:40:25;;;;;;;;;;;;;;;36.09;31.59;99302.88;5132861;27;19915;-39
2021/06/22 05:42:51;;;;;;;;;;;;;;;36.55;30.78;99307.06;5132081;27;19912;-38
2021/06/22 05:45:16;;;;;;;;;;;;;;;36.70;31.22;99305.97;5131514;27;20251;-39
2021/06/22 05:47:41;;;;;;;;;;;;;;;36.56;31.51;99306.69;5132221;27;19923;-39
2021/06/22 05:50:07;;;;;;;;;;;;;;;36.91;30.77;99308.00;5132078;27;19917;-39
2021/06/22 05:52:32;;;;;;;;;;;;;;;36.69;31.03;99307.16;5131844;27;19922;-39
2021/06/22 05:54:58;;;;;;;;;;;;;;;36.54;30.87;99308.28;5131272;27;19915;-39
2021/06/22 05:57:23;;;;;;;;;;;;;;;36.04;31.83;99317.06;5131661;27;19922;-40
2021/06/22 05:59:48;;;;;;;;;;;;;;;37.02;30.67;99307.25;5131446;27;19934;-39
2021/06/22 06:02:13;;;;;;;;;;;;;;;37.44;30.12;99320.41;5132136;27;19918;-39
2021/06/22 06:04:39;;;;;;;;;;;;;;;37.51;29.75;99314.06;5131908;27;19911;-38
2021/06/22 06:07:04;;;;;;;;;;;;;;;37.54;29.20;99314.06;5131691;27;20418;-39
2021/06/22 06:09:29;;;;;;;;;;;;;;;37.60;29.89;99313.66;5131852;27;19933;-40
2021/06/22 06:11:55;;;;;;;;;;;;;;;37.86;29.26;99316.03;5131790;27;20068;-40
2021/06/22 06:14:20;;;;;;;;;;;;;;;38.32;28.38;99322.72;5131142;27;20040;-39
2021/06/22 06:16:46;;;;;;;;;;;;;;;38.52;27.42;99323.84;5131193;27;20298;-38
2021/06/22 06:19:11;;;;;;;;;;;;;;;38.28;27.95;99336.59;5131550;27;19991;-39
2021/06/22 06:21:38;;;;;;;;;;;;;;;37.75;29.33;99329.94;5120327;27;19912;-39
2021/06/22 06:24:04;;;;;;;;;;;;;;;37.80;28.97;99327.97;5110792;28;20247;-39
2021/06/22 06:26:33;;;;;;;;;;;;;;;37.97;28.35;99329.91;5111074;28;19915;-39
2021/06/22 06:29:08;;;;;;;;;;;;;;;38.08;28.00;99327.13;5111074;28;19934;-38
2021/06/22 06:31:33;;;;;;;;;;;;;;;38.41;28.32;99331.41;5111129;28;19912;-41
2021/06/22 06:33:59;;;;;;;;;;;;;;;38.96;27.10;99332.78;5111108;28;19912;-38
2021/06/22 06:36:24;;;;;;;;;;;;;;;38.92;27.30;99323.69;5110238;28;19934;-38
2021/06/22 06:38:50;;;;;;;;;;;;;;;38.68;27.53;99322.59;5110170;28;19912;-38
2021/06/22 06:41:15;;;;;;;;;;;;;;;38.60;27.60;99332.97;5110673;28;19912;-40
2021/06/22 06:43:40;;;;;;;;;;;;;;;38.58;26.90;99326.22;5110267;28;19912;-39
2021/06/22 06:46:06;;;;;;;;;;;;;;;38.42;27.17;99329.41;5110124;28;20240;-40
2021/06/22 06:48:32;;;;;;;;;;;;;;;38.52;27.97;99332.16;5109958;28;19912;-40
2021/06/22 06:50:58;;;;;;;;;;;;;;;38.92;27.60;99335.59;5110278;28;20074;-39
2021/06/22 06:53:23;;;;;;;;;;;;;;;39.10;27.29;99337.50;5115931;28;19967;-38
2021/06/22 06:55:49;;;;;;;;;;;;;;;38.99;27.34;99348.66;5130379;28;19916;-38
2021/06/22 06:58:14;;;;;;;;;;;;;;;37.95;28.38;99337.84;5130623;27;19938;-39
2021/06/22 07:00:40;;;;;;;;;;;;;;;38.45;27.64;99346.09;5130596;28;20005;-40
2021/06/22 07:03:06;;;;;;;;;;;;;;;38.48;28.27;99344.47;5130964;28;19912;-38
2021/06/22 07:05:31;;;;;;;;;;;;;;;38.75;27.62;99352.34;5130824;27;19915;-39
2021/06/22 07:07:57;;;;;;;;;;;;;;;38.79;27.82;99345.59;5130985;27;19911;-39
2021/06/22 07:10:22;;;;;;;;;;;;;;;39.25;26.14;99341.75;5130950;27;19911;-38
2021/06/22 07:12:47;;;;;;;;;;;;;;;39.45;26.02;99338.47;5130272;28;20390;-37
2021/06/22 07:15:13;;;;;;;;;;;;;;;39.13;26.47;99339.47;5133769;27;19920;-39
2021/06/22 07:17:39;;;;;;;;;;;;;;;39.40;26.60;99339.66;5134054;27;20318;-39
2021/06/22 07:20:04;;;;;;;;;;;;;;;38.57;27.62;99339.31;5134730;27;19945;-40
2021/06/22 07:22:30;;;;;;;;;;;;;;;38.60;27.82;99338.53;5134207;27;19953;-40
2021/06/22 07:24:55;;;;;;;;;;;;;;;39.25;26.98;99336.19;5134133;27;19915;-40
2021/06/22 07:27:20;;;;;;;;;;;;;;;39.61;25.80;99341.50;5134537;27;20367;-40
2021/06/22 07:29:46;;;;;;;;;;;;;;;39.98;25.19;99345.56;5134536;27;19912;-40
2021/06/22 07:32:11;;;;;;;;;;;;;;;40.44;24.97;99346.31;5134542;27;20251;-41
2021/06/22 07:34:36;;;;;;;;;;;;;;;40.16;24.70;99347.41;5134794;27;19919;-40
2021/06/22 07:37:02;;;;;;;;;;;;;;;38.96;26.84;99334.78;5134171;27;19915;-39
2021/06/22 07:39:27;;;;;;;;;;;;;;;39.70;26.28;99338.28;5133980;27;19918;-40
2021/06/22 07:41:53;;;;;;;;;;;;;;;40.30;24.78;99338.09;5134270;27;20019;-38
2021/06/22 07:44:18;;;;;;;;;;;;;;;39.76;25.10;99335.84;5133960;27;19915;-40
2021/06/22 07:46:43;;;;;;;;;;;;;;;38.78;27.13;99334.84;5132989;27;19919;-40
2021/06/22 07:49:09;;;;;;;;;;;;;;;39.38;26.35;99333.72;5134393;27;19941;-40
2021/06/22 07:51:34;;;;;;;;;;;;;;;39.59;26.82;99329.22;5134483;27;19916;-41
2021/06/22 07:53:59;;;;;;;;;;;;;;;39.23;27.01;99340.59;5134458;27;19911;-39
2021/06/22 07:56:24;;;;;;;;;;;;;;;39.86;25.91;99337.72;5134035;27;19941;-39
2021/06/22 07:58:50;;;;;;;;;;;;;;;39.84;25.67;99340.91;5134067;27;19911;-41
2021/06/22 08:01:16;;;;;;;;;;;;;;;39.38;26.55;99332.94;5134395;27;20450;-41
2021/06/22 08:03:41;;;;;;;;;;;;;;;39.89;25.88;99342.50;5133479;27;19911;-40
2021/06/22 08:06:07;;;;;;;;;;;;;;;40.21;25.78;99336.59;5133052;27;19921;-40
2021/06/22 08:08:32;;;;;;;;;;;;;;;40.64;24.96;99341.66;5133390;27;19911;-39
2021/06/22 08:10:57;;;;;;;;;;;;;;;40.98;23.96;99346.44;5133780;27;19919;-41
2021/06/22 08:13:24;;;;;;;;;;;;;;;40.13;25.24;99348.22;5133875;27;20232;-39
2021/06/22 08:15:50;;;;;;;;;;;;;;;40.32;25.57;99347.59;5133613;27;20350;-39
2021/06/22 08:18:15;;;;;;;;;;;;;;;40.69;26.06;99348.00;5133617;27;19922;-41
2021/06/22 08:20:41;;;;;;;;;;;;;;;40.86;25.19;99346.19;5133881;27;19980;-39
2021/06/22 08:23:06;;;;;;;;;;;;;;;40.50;25.92;99350.22;5133587;27;19998;-40
2021/06/22 08:25:33;;;;;;;;;;;;;;;39.49;27.03;99342.81;5132429;27;19954;-41
2021/06/22 08:27:58;;;;;;;;;;;;;;;40.25;25.60;99350.47;5133637;27;19972;-41
2021/06/22 08:30:24;;;;;;;;;;;;;;;39.47;26.73;99349.97;5133278;27;19942;-40
2021/06/22 08:32:50;;;;;;;;;;;;;;;39.46;26.96;99346.41;5133521;27;19995;-40
2021/06/22 08:35:15;;;;;;;;;;;;;;;39.86;26.59;99346.84;5132909;27;19922;-41
2021/06/22 08:37:40;;;;;;;;;;;;;;;40.36;26.54;99342.03;5133004;27;20358;-39
2021/06/22 08:40:06;;;;;;;;;;;;;;;40.60;25.83;99343.72;5132797;27;19949;-41
2021/06/22 08:42:32;;;;;;;;;;;;;;;38.84;27.46;99338.78;5132952;27;20298;-41
2021/06/22 08:44:57;;;;;;;;;;;;;;;39.19;27.69;99348.19;5114327;27;20297;-39
2021/06/22 08:47:23;;;;;;;;;;;;;;;36.67;31.07;99344.75;5114327;27;19912;-39
2021/06/22 08:49:49;;;;;;;;;;;;;;;38.03;29.47;99335.84;5132643;27;19956;-39
2021/06/22 08:52:15;;;;;;;;;;;;;;;38.76;28.56;99342.81;5132647;27;20388;-39
2021/06/22 08:54:40;;;;;;;;;;;;;;;38.47;28.90;99348.47;5114340;27;20363;-39
2021/06/22 08:57:05;;;;;;;;;;;;;;;39.11;26.98;99336.31;5132710;27;19943;-39
2021/06/22 08:59:31;;;;;;;;;;;;;;;38.87;27.77;99336.00;5132110;27;20217;-40
2021/06/22 09:01:56;;;;;;;;;;;;;;;38.88;28.07;99334.81;5132409;27;19946;-39
2021/06/22 09:04:21;;;;;;;;;;;;;;;38.99;28.36;99331.16;5132160;27;20339;-39
2021/06/22 09:06:46;;;;;;;;;;;;;;;39.45;27.38;99317.00;5132025;27;19976;-40
2021/06/22 09:09:12;;;;;;;;;;;;;;;39.69;26.31;99333.88;5132445;27;20370;-40
2021/06/22 09:11:37;;;;;;;;;;;;;;;39.50;27.71;99335.25;5132562;27;20210;-40
2021/06/22 09:14:04;;;;;;;;;;;;;;;39.85;27.01;99328.59;5132794;27;19968;-40
2021/06/22 09:16:29;;;;;;;;;;;;;;;40.05;26.76;99319.66;5132312;27;20022;-40
2021/06/22 09:19:07;;;;;;;;;;;;;;;40.75;26.14;99332.41;5132732;27;19974;-40
2021/06/22 09:21:39;;;;;;;;;;;;;;;41.52;25.67;99325.31;5122432;27;19918;-39
2021/06/22 09:24:13;;;;;;;;;;;;;;;41.26;25.49;99333.31;5111041;28;20022;-40
2021/06/22 09:26:38;;;;;;;;;;;;;;;41.07;24.29;99331.97;5092964;28;19942;-40
2021/06/22 09:29:11;;;;;;;;;;;;;;;40.94;25.37;99328.19;5092764;28;20435;-40
2021/06/22 09:31:37;;;;;;;;;;;;;;;41.45;23.89;99315.06;5111123;28;19912;-40
2021/06/22 09:34:02;;;;;;;;;;;;;;;41.49;24.71;99323.34;5093036;28;19918;-39
2021/06/22 09:36:30;;;;;;;;;;;;;;;41.27;24.17;99320.91;5111180;28;19915;-39
2021/06/22 09:38:56;;;;;;;;;;;;;;;41.24;24.03;99321.75;5111090;28;20385;-40
2021/06/22 09:41:25;;;;;;;;;;;;;;;41.10;24.83;99317.16;5111337;28;19912;-39
2021/06/22 09:43:52;;;;;;;;;;;;;;;40.09;25.09;99314.06;5111473;28;19950;-40
2021/06/22 09:46:51;;;;;;;;;;;;;;;41.16;23.87;99300.75;5111199;28;19983;-40
2021/06/22 09:49:19;;;;;;;;;;;;;;;41.52;22.96;99298.19;5066222;28;19911;-41
2021/06/22 09:52:31;;;;;;;;;;;;;;;42.15;22.76;99288.31;5111048;28;19912;-40
2021/06/22 09:54:33;;;;;;;;;;;;;;;42.12;21.25;99287.16;5096348;28;19981;-39
2021/06/22 09:57:04;;;;;;;;;;;;;;;41.92;22.50;99280.75;5110772;28;20018;-43
2021/06/22 09:59:31;;;;;;;;;;;;;;;42.49;22.52;99293.59;5110861;28;20334;-41
2021/06/22 10:02:03;;;;;;;;;;;;;;;42.18;22.13;99293.81;5110819;28;19929;-39
2021/06/22 10:04:28;;;;;;;;;;;;;;;42.18;21.73;99296.63;5110413;28;20340;-40
2021/06/22 10:06:58;;;;;;;;;;;;;;;42.08;20.55;99286.44;5110121;28;19938;-40
2021/06/22 10:09:32;;;;;;;;;;;;;;;42.64;21.08;99291.28;5110973;28;19993;-39
2021/06/22 10:12:01;;;;;;;;;;;;;;;42.40;21.34;99282.19;5110751;28;19912;-41
2021/06/22 10:14:36;;;;;;;;;;;;;;;42.64;20.89;99276.53;5109939;28;19911;-39
2021/06/22 10:17:02;;;;;;;;;;;;;;;42.54;20.70;99286.75;5110224;28;19916;-40
2021/06/22 10:19:28;;;;;;;;;;;;;;;42.58;21.03;99279.84;5110540;28;19916;-40
2021/06/22 10:21:53;;;;;;;;;;;;;;;41.42;21.41;99276.81;5123482;27;20302;-40
2021/06/22 10:24:19;;;;;;;;;;;;;;;42.51;21.91;99279.19;5131361;27;19961;-39
2021/06/22 10:26:45;;;;;;;;;;;;;;;43.06;20.30;99271.97;5130866;27;19919;-40
2021/06/22 10:29:10;;;;;;;;;;;;;;;43.43;19.77;99261.50;5130882;27;19951;-40
2021/06/22 10:31:36;;;;;;;;;;;;;;;43.12;20.22;99261.81;5112600;27;19923;-40
2021/06/22 10:34:01;;;;;;;;;;;;;;;43.49;19.49;99265.34;5130943;27;19911;-40
2021/06/22 10:36:27;;;;;;;;;;;;;;;43.24;19.75;99259.53;5130942;27;19912;-41
2021/06/22 10:38:54;;;;;;;;;;;;;;;43.11;20.61;99263.06;5112650;28;20298;-42
2021/06/22 10:41:19;;;;;;;;;;;;;;;43.60;19.91;99255.84;5130869;27;19915;-40
2021/06/22 10:43:47;;;;;;;;;;;;;;;43.35;20.03;99254.50;5112503;28;19912;-41
2021/06/22 10:46:16;;;;;;;;;;;;;;;43.37;19.59;99259.66;5130863;27;19926;-40
2021/06/22 10:48:42;;;;;;;;;;;;;;;43.87;20.18;99250.75;5130414;27;19922;-42
2021/06/22 10:51:26;;;;;;;;;;;;;;;43.83;19.39;99246.44;5130809;28;19995;-40
2021/06/22 10:53:51;;;;;;;;;;;;;;;44.05;18.44;99243.84;5130904;28;20403;-41
2021/06/22 10:56:17;;;;;;;;;;;;;;;44.38;19.39;99246.50;5130638;28;19919;-42
2021/06/22 10:59:03;;;;;;;;;;;;;;;44.26;17.57;99245.25;5130345;28;20006;-42
2021/06/22 11:01:28;;;;;;;;;;;;;;;42.46;19.90;99237.75;5130360;28;19911;-38
2021/06/22 11:04:03;;;;;;;;;;;;;;;41.87;20.35;99225.38;5112197;28;20053;-40
2021/06/22 11:06:29;;;;;;;;;;;;;;;42.60;20.20;99228.28;5130224;28;19915;-40
2021/06/22 11:08:55;;;;;;;;;;;;;;;41.87;21.21;99237.34;5130888;28;19918;-41
2021/06/22 11:11:20;;;;;;;;;;;;;;;41.46;22.45;99226.53;5112204;28;19911;-39
2021/06/22 11:13:58;;;;;;;;;;;;;;;42.26;20.22;99229.41;5130646;28;19912;-39
2021/06/22 11:16:25;;;;;;;;;;;;;;;41.42;21.13;99223.78;5130422;28;20394;-40
2021/06/22 11:19:00;;;;;;;;;;;;;;;41.54;21.14;99222.38;5130690;28;19915;-42
2021/06/22 11:21:43;;;;;;;;;;;;;;;40.61;21.17;99225.44;5130177;28;19915;-39
2021/06/22 11:24:09;;;;;;;;;;;;;;;39.76;22.35;99216.13;5130270;28;19919;-40
2021/06/22 11:26:40;;;;;;;;;;;;;;;39.98;22.97;99222.25;5130394;28;19943;-40
2021/06/22 11:29:06;;;;;;;;;;;;;;;41.04;22.22;99213.63;5130923;28;19934;-40
2021/06/22 11:31:34;;;;;;;;;;;;;;;42.19;21.29;99213.56;5130681;28;20360;-39
2021/06/22 11:34:05;;;;;;;;;;;;;;;43.18;19.90;99222.13;5130341;27;19916;-41
2021/06/22 11:36:31;;;;;;;;;;;;;;;43.88;19.64;99220.69;5130430;28;19915;-39
2021/06/22 11:39:19;;;;;;;;;;;;;;;43.90;18.73;99221.03;5130450;28;19984;-38
2021/06/22 11:42:03;;;;;;;;;;;;;;;44.08;18.73;99212.13;5130595;28;19938;-41
2021/06/22 11:44:28;;;;;;;;;;;;;;;42.35;20.09;99210.03;5130366;28;19911;-40
2021/06/22 11:46:53;;;;;;;;;;;;;;;41.76;20.60;99206.06;5130403;28;20302;-40
2021/06/22 11:49:19;;;;;;;;;;;;;;;42.17;20.63;99204.81;5130320;27;20010;-41
2021/06/22 11:51:47;;;;;;;;;;;;;;;41.80;21.28;99196.38;5130524;27;19912;-40
2021/06/22 11:54:32;;;;;;;;;;;;;;;42.13;21.35;99196.50;5130482;28;19958;-40
2021/06/22 11:56:58;;;;;;;;;;;;;;;42.02;20.43;99189.56;5130174;28;20072;-40
2021/06/22 11:59:23;;;;;;;;;;;;;;;41.27;21.09;99189.78;5129621;27;19951;-41
2021/06/22 12:01:48;;;;;;;;;;;;;;;40.45;21.77;99189.03;5133944;27;19942;-40
2021/06/22 12:04:13;;;;;;;;;;;;;;;40.37;22.15;99188.34;5133901;27;19962;-40
2021/06/22 12:06:39;;;;;;;;;;;;;;;41.35;22.34;99190.44;5133603;27;19915;-40
2021/06/22 12:09:24;;;;;;;;;;;;;;;42.20;20.75;99187.22;5132555;27;19915;-41
2021/06/22 12:11:50;;;;;;;;;;;;;;;41.27;22.08;99184.19;5133483;27;19911;-39
2021/06/22 12:14:15;;;;;;;;;;;;;;;41.71;21.38;99178.63;5133838;27;20010;-38
2021/06/22 12:16:44;;;;;;;;;;;;;;;41.13;22.23;99171.25;5133614;27;19923;-40
2021/06/22 12:19:13;;;;;;;;;;;;;;;42.29;21.30;99164.25;5133377;27;19955;-40
2021/06/22 12:21:39;;;;;;;;;;;;;;;41.91;21.86;99175.81;5133314;27;19912;-42
2021/06/22 12:24:06;;;;;;;;;;;;;;;41.45;22.33;99161.53;5133586;27;19957;-40
2021/06/22 12:26:31;;;;;;;;;;;;;;;42.32;21.82;99157.78;5133508;27;20237;-40
2021/06/22 12:28:57;;;;;;;;;;;;;;;41.04;22.08;99157.06;5133275;27;20391;-41
2021/06/22 12:31:22;;;;;;;;;;;;;;;40.47;23.38;99155.16;5133517;27;19969;-40
2021/06/22 12:33:47;;;;;;;;;;;;;;;41.28;22.48;99149.50;5133603;27;20303;-40
2021/06/22 12:36:20;;;;;;;;;;;;;;;42.12;22.73;99149.47;5133199;27;19998;-39
2021/06/22 12:38:55;;;;;;;;;;;;;;;42.43;21.76;99151.97;5133065;27;19934;-40
2021/06/22 12:41:20;;;;;;;;;;;;;;;42.82;21.04;99147.44;5131895;27;19911;-40
2021/06/22 12:43:47;;;;;;;;;;;;;;;43.12;20.80;99147.09;5131681;27;19912;-40